Time;durP1;ratioP1;P1;durP2;ratioP2;P2;SDS_P1;SDS_P2;PMS_P1;PMS_P2;Temp;Humidity;BMP_temperature;BMP_pressure;BME280_temperature;BME280_humidity;BME280_pressure;Samples;Min_cycle;Max_cycle;Signal;HPM_P1;HPM_P2
2022/10/06 00:00:13;;;;;;;6.20;3.62;;;;;;;9.20;100.00;101151.11;1653410;87;21269;-77
2022/10/06 00:03:21;;;;;;;6.55;4.35;;;;;;;9.19;100.00;101169.88;1653614;87;21202;-78
2022/10/06 00:06:27;;;;;;;7.72;5.20;;;;;;;9.11;100.00;101160.19;1653605;87;21214;-78
2022/10/06 00:09:27;;;;;;;9.18;4.92;;;;;;;9.11;100.00;101165.64;1653774;87;21238;-77
2022/10/06 00:12:33;;;;;;;7.50;3.98;;;;;;;9.10;100.00;101162.05;1653504;87;21242;-78
2022/10/06 00:15:41;;;;;;;13.88;4.62;;;;;;;9.17;100.00;101160.95;1646996;87;21202;-78
2022/10/06 00:18:47;;;;;;;7.85;5.33;;;;;;;9.14;100.00;101159.90;1662337;85;21759;-78
2022/10/06 00:21:52;;;;;;;8.28;5.53;;;;;;;9.08;100.00;101168.65;1673702;85;21240;-78
2022/10/06 00:24:58;;;;;;;6.03;4.25;;;;;;;9.05;100.00;101159.41;1674495;85;21208;-78
2022/10/06 00:28:06;;;;;;;11.60;4.53;;;;;;;9.03;100.00;101153.22;1674107;85;21256;-78
2022/10/06 00:31:12;;;;;;;10.65;4.83;;;;;;;9.04;100.00;101149.52;1673988;85;21220;-78
2022/10/06 00:34:17;;;;;;;7.17;4.42;;;;;;;9.05;100.00;101145.77;1675262;85;21196;-78
2022/10/06 00:37:23;;;;;;;7.65;4.53;;;;;;;9.04;100.00;101148.14;1674223;85;21212;-78
2022/10/06 00:40:29;;;;;;;5.70;4.25;;;;;;;9.02;100.00;101149.63;1675772;85;21815;-78
2022/10/06 00:44:00;;;;;;;8.00;4.80;;;;;;;9.04;100.00;101159.06;1675281;85;21237;-78
2022/10/06 00:47:07;;;;;;;10.88;5.22;;;;;;;9.04;100.00;101158.55;1674512;85;21220;-78
2022/10/06 00:50:13;;;;;;;7.58;5.10;;;;;;;9.11;100.00;101165.64;1675998;85;21217;-78
2022/10/06 00:53:20;;;;;;;10.35;5.08;;;;;;;9.04;100.00;101165.37;1674599;85;21216;-78
2022/10/06 00:56:25;;;;;;;9.10;5.33;;;;;;;9.03;100.00;101160.90;1675876;85;21253;-78
2022/10/06 00:59:30;;;;;;;6.62;4.67;;;;;;;9.04;100.00;101163.16;1674828;85;21244;-78
2022/10/06 01:02:45;;;;;;;8.48;4.70;;;;;;;9.04;100.00;101165.88;1674806;85;21208;-77
2022/10/06 01:05:58;;;;;;;10.50;5.35;;;;;;;9.00;100.00;101169.40;1674036;85;21779;-78
2022/10/06 01:09:04;;;;;;;8.08;5.10;;;;;;;9.04;100.00;101160.42;1675970;85;21224;-78
2022/10/06 01:12:11;;;;;;;10.53;4.60;;;;;;;9.04;100.00;101160.42;1674318;85;21807;-77
2022/10/06 01:15:18;;;;;;;5.30;4.15;;;;;;;9.04;100.00;101161.79;1677635;85;21312;-77
2022/10/06 01:18:26;;;;;;;6.70;4.70;;;;;;;9.03;100.00;101162.77;1681026;85;21220;-77
2022/10/06 01:21:45;;;;;;;9.03;4.45;;;;;;;9.01;100.00;101156.11;1680865;85;21258;-77
2022/10/06 01:24:52;;;;;;;6.90;3.33;;;;;;;9.02;100.00;101151.50;1682241;85;21236;-77
2022/10/06 01:27:59;;;;;;;8.58;4.80;;;;;;;9.05;100.00;101148.50;1682312;85;21224;-77
2022/10/06 01:31:05;;;;;;;7.80;4.50;;;;;;;9.13;100.00;101139.08;1682316;85;21192;-77
2022/10/06 01:34:11;;;;;;;7.10;4.42;;;;;;;9.14;100.00;101143.02;1682661;85;21521;-78
2022/10/06 01:37:18;;;;;;;7.87;4.05;;;;;;;9.19;100.00;101138.48;1682687;85;21220;-78
2022/10/06 01:40:27;;;;;;;10.58;4.20;;;;;;;9.20;100.00;101134.23;1683172;85;21759;-77
2022/10/06 01:43:34;;;;;;;10.20;4.37;;;;;;;9.21;100.00;101126.90;1682596;85;21196;-78
2022/10/06 01:46:39;;;;;;;6.90;4.10;;;;;;;9.19;100.00;101127.05;1682837;85;21778;-77
2022/10/06 01:49:45;;;;;;;5.40;3.95;;;;;;;9.15;100.00;101137.05;1682716;85;21269;-78
2022/10/06 01:52:56;;;;;;;8.45;4.30;;;;;;;9.19;100.00;101137.12;1682597;85;21256;-77
2022/10/06 01:56:06;;;;;;;8.35;4.35;;;;;;;9.19;100.00;101138.48;1681308;85;21597;-77
2022/10/06 01:59:12;;;;;;;9.48;3.62;;;;;;;9.14;100.00;101133.97;1682814;85;21609;-77
2022/10/06 02:02:11;;;;;;;6.00;3.50;;;;;;;9.06;100.00;101133.84;1682632;85;21247;-77
2022/10/06 02:05:17;;;;;;;6.33;3.67;;;;;;;8.99;100.00;101135.41;1682607;85;21315;-77
2022/10/06 02:08:23;;;;;;;6.75;4.20;;;;;;;8.99;100.00;101123.13;1681542;85;21818;-77
2022/10/06 02:11:31;;;;;;;6.37;4.00;;;;;;;8.93;100.00;101117.25;1682723;85;21212;-77
2022/10/06 02:14:37;;;;;;;10.28;3.92;;;;;;;8.88;100.00;101118.20;1682400;85;21263;-77
2022/10/06 02:17:44;;;;;;;5.75;4.33;;;;;;;8.82;100.00;101117.43;1675791;85;21201;-79
2022/10/06 02:20:50;;;;;;;5.87;4.65;;;;;;;8.72;100.00;101116.58;1675786;85;21192;-78
2022/10/06 02:23:56;;;;;;;6.78;4.53;;;;;;;8.61;100.00;101126.26;1674635;85;21221;-78
2022/10/06 02:27:02;;;;;;;7.42;4.78;;;;;;;8.57;100.00;101125.70;1676026;85;21319;-78
2022/10/06 02:30:07;;;;;;;11.12;4.80;;;;;;;8.53;100.00;101131.08;1675442;85;21228;-77
2022/10/06 02:33:07;;;;;;;8.60;5.20;;;;;;;8.62;100.00;101126.64;1675355;85;21224;-77
2022/10/06 02:36:15;;;;;;;16.57;4.90;;;;;;;8.62;100.00;101130.22;1675862;85;21541;-77
2022/10/06 02:39:22;;;;;;;5.22;4.10;;;;;;;8.58;100.00;101123.84;1675978;85;21224;-78
2022/10/06 02:42:28;;;;;;;8.88;5.85;;;;;;;8.55;100.00;101133.16;1675896;85;21229;-78
2022/10/06 02:45:34;;;;;;;8.45;5.62;;;;;;;8.53;100.00;101132.45;1675183;85;21767;-78
2022/10/06 02:48:44;;;;;;;8.10;5.28;;;;;;;8.53;100.00;101131.59;1675803;85;21188;-78
2022/10/06 02:51:41;;;;;;;8.80;5.40;;;;;;;8.52;100.00;101144.37;1675829;85;21185;-78
2022/10/06 02:54:39;;;;;;;7.22;5.05;;;;;;;8.57;100.00;101147.52;1675997;85;21201;-78
2022/10/06 02:57:32;;;;;;;8.95;4.72;;;;;;;8.54;100.00;101151.03;1675760;85;21311;-78
2022/10/06 03:00:37;;;;;;;9.03;4.83;;;;;;;8.53;100.00;101156.13;1675524;85;21851;-78
2022/10/06 03:03:38;;;;;;;13.93;5.00;;;;;;;8.59;100.00;101160.50;1675410;85;21244;-78
2022/10/06 03:06:44;;;;;;;9.70;4.30;;;;;;;8.52;100.00;101165.32;1675821;85;21204;-78
2022/10/06 03:09:52;;;;;;;9.23;4.30;;;;;;;8.49;100.00;101162.87;1674419;85;21216;-77
2022/10/06 03:12:59;;;;;;;9.45;4.78;;;;;;;8.44;100.00;101164.15;1675610;85;21229;-77
2022/10/06 03:16:05;;;;;;;15.55;5.65;;;;;;;8.54;100.00;101168.25;1675197;85;21794;-77
2022/10/06 03:19:12;;;;;;;15.15;4.97;;;;;;;8.45;100.00;101178.13;1675952;85;21276;-77
2022/10/06 03:22:18;;;;;;;7.55;4.80;;;;;;;8.40;100.00;101179.06;1675735;85;21803;-77
2022/10/06 03:25:24;;;;;;;6.45;4.97;;;;;;;8.30;100.00;101177.30;1675809;85;21221;-77
2022/10/06 03:28:33;;;;;;;7.55;4.85;;;;;;;8.25;100.00;101168.18;1675845;85;21209;-77
2022/10/06 03:31:40;;;;;;;11.03;5.53;;;;;;;8.17;100.00;101177.05;1675104;85;21236;-77
2022/10/06 03:34:46;;;;;;;8.83;5.67;;;;;;;8.19;100.00;101190.55;1670604;85;21272;-77
2022/10/06 03:37:53;;;;;;;9.00;5.35;;;;;;;8.16;100.00;101189.45;1653151;86;21814;-77
2022/10/06 03:40:59;;;;;;;9.53;5.45;;;;;;;8.17;100.00;101192.54;1673111;85;21193;-77
2022/10/06 03:43:58;;;;;;;11.30;5.80;;;;;;;8.17;100.00;101194.77;1673282;85;21228;-77
2022/10/06 03:46:53;;;;;;;8.95;5.70;;;;;;;8.06;100.00;101190.80;1673936;85;21296;-77
2022/10/06 03:49:59;;;;;;;8.20;5.40;;;;;;;8.03;100.00;101189.70;1667674;85;21769;-77
2022/10/06 03:53:04;;;;;;;7.78;4.95;;;;;;;8.03;100.00;101186.97;1646687;87;21215;-77
2022/10/06 03:56:15;;;;;;;7.40;5.17;;;;;;;8.02;100.00;101183.03;1647014;87;21754;-77
2022/10/06 03:59:22;;;;;;;7.12;5.20;;;;;;;8.01;100.00;101190.86;1647633;87;21565;-77
2022/10/06 04:02:28;;;;;;;7.25;5.10;;;;;;;7.99;100.00;101186.88;1646156;87;21294;-77
2022/10/06 04:05:34;;;;;;;11.28;5.60;;;;;;;8.00;100.00;101178.20;1645775;87;21262;-77
2022/10/06 04:08:41;;;;;;;9.90;5.55;;;;;;;8.09;100.00;101174.66;1647020;87;21244;-78
2022/10/06 04:11:48;;;;;;;11.73;5.60;;;;;;;8.15;100.00;101172.75;1647138;87;21789;-77
2022/10/06 04:14:56;;;;;;;15.72;6.03;;;;;;;8.19;100.00;101179.66;1619416;88;21600;-77
2022/10/06 04:18:04;;;;;;;11.38;4.90;;;;;;;8.23;100.00;101181.07;1644581;87;21960;-77
2022/10/06 04:21:10;;;;;;;12.05;5.37;;;;;;;8.33;100.00;101183.84;1644803;87;21820;-77
2022/10/06 04:24:18;;;;;;;8.70;5.28;;;;;;;8.31;100.00;101185.33;1644080;87;21274;-77
2022/10/06 04:27:27;;;;;;;13.78;5.50;;;;;;;8.39;100.00;101185.53;1644378;87;21223;-77
2022/10/06 04:30:35;;;;;;;11.88;6.67;;;;;;;8.48;100.00;101188.42;1644570;87;21274;-76
2022/10/06 04:33:41;;;;;;;9.68;5.80;;;;;;;8.60;100.00;101198.17;1643273;87;21313;-77
2022/10/06 04:36:47;;;;;;;12.20;6.05;;;;;;;8.69;100.00;101200.05;1643195;87;21230;-77
2022/10/06 04:39:53;;;;;;;10.72;6.58;;;;;;;8.81;100.00;101190.73;1644461;87;21271;-77
2022/10/06 04:43:01;;;;;;;13.53;6.55;;;;;;;8.94;100.00;101191.81;1643505;87;21222;-78
2022/10/06 04:46:07;;;;;;;10.65;5.83;;;;;;;9.05;100.00;101190.29;1643114;87;21270;-78
2022/10/06 04:49:15;;;;;;;11.05;6.08;;;;;;;9.09;100.00;101190.36;1627787;88;21353;-78
2022/10/06 04:52:21;;;;;;;11.88;5.87;;;;;;;9.17;100.00;101187.77;1644530;87;21876;-79
2022/10/06 04:55:29;;;;;;;10.45;6.37;;;;;;;9.21;100.00;101189.17;1643227;87;21218;-79
2022/10/06 04:58:38;;;;;;;10.28;5.37;;;;;;;9.28;100.00;101187.25;1629722;88;21246;-79
2022/10/06 05:01:46;;;;;;;8.15;6.05;;;;;;;9.38;100.00;101178.02;1623399;88;21857;-79
2022/10/06 05:04:52;;;;;;;12.68;5.60;;;;;;;9.46;100.00;101184.98;1643892;87;21235;-79
2022/10/06 05:07:58;;;;;;;12.70;6.20;;;;;;;9.55;100.00;101185.08;1644924;87;21741;-79
2022/10/06 05:11:08;;;;;;;9.25;5.47;;;;;;;9.70;100.00;101184.47;1649911;86;21211;-79
2022/10/06 05:14:14;;;;;;;13.45;5.30;;;;;;;9.91;100.00;101183.36;1670166;85;21227;-79
2022/10/06 05:17:19;;;;;;;9.85;5.00;;;;;;;10.15;100.00;101193.75;1667079;85;21254;-79
2022/10/06 05:20:25;;;;;;;7.92;3.95;;;;;;;10.44;100.00;101185.39;1670904;84;21216;-79
2022/10/06 05:23:34;;;;;;;6.10;3.42;;;;;;;10.61;100.00;101183.19;1657944;84;21202;-79
2022/10/06 05:26:42;;;;;;;12.82;3.83;;;;;;;10.79;100.00;101181.84;1678142;84;21215;-79
2022/10/06 05:29:47;;;;;;;7.90;4.40;;;;;;;10.94;100.00;101177.52;1684072;84;22058;-79
2022/10/06 05:32:54;;;;;;;11.55;3.90;;;;;;;11.14;100.00;101172.72;1672331;84;21225;-79
2022/10/06 05:36:05;;;;;;;10.13;4.20;;;;;;;11.36;100.00;101166.38;1679594;84;21238;-78
2022/10/06 05:39:13;;;;;;;10.88;3.55;;;;;;;11.47;100.00;101165.59;1679615;84;21769;-79
2022/10/06 05:42:21;;;;;;;5.42;3.25;;;;;;;11.64;100.00;101161.59;1679743;84;21204;-79
2022/10/06 05:45:29;;;;;;;11.43;3.50;;;;;;;11.83;100.00;101174.23;1675409;84;22708;-79
2022/10/06 05:48:35;;;;;;;11.80;3.67;;;;;;;12.01;99.55;101174.50;1679050;84;21264;-79
2022/10/06 05:51:42;;;;;;;8.10;3.67;;;;;;;12.16;98.52;101173.87;1679680;84;21330;-79
2022/10/06 05:54:49;;;;;;;8.58;3.47;;;;;;;12.33;97.47;101180.25;1674608;84;21188;-78
2022/10/06 05:57:55;;;;;;;7.90;3.08;;;;;;;12.44;96.91;101181.33;1675227;84;21257;-78
2022/10/06 06:01:00;;;;;;;7.33;3.20;;;;;;;12.65;95.87;101182.22;1683288;84;21265;-78
2022/10/06 06:04:10;;;;;;;6.72;2.90;;;;;;;12.84;94.45;101180.53;1674146;84;21212;-78
2022/10/06 06:07:18;;;;;;;9.80;3.42;;;;;;;13.04;93.70;101179.71;1673006;84;21192;-78
2022/10/06 06:10:24;;;;;;;5.42;2.87;;;;;;;13.25;91.93;101192.43;1673012;84;22923;-79
2022/10/06 06:13:29;;;;;;;7.45;2.50;;;;;;;13.44;90.43;101185.72;1677560;84;21215;-79
2022/10/06 06:16:38;;;;;;;6.78;2.80;;;;;;;13.53;87.04;101187.42;1679183;84;21200;-78
2022/10/06 06:19:47;;;;;;;8.45;2.52;;;;;;;13.62;85.39;101188.27;1639334;86;21213;-79
2022/10/06 06:23:02;;;;;;;7.55;2.50;;;;;;;13.73;83.81;101193.91;1673999;84;21180;-79
2022/10/06 06:26:12;;;;;;;4.60;2.62;;;;;;;13.82;82.60;101194.23;1664221;84;21206;-78
2022/10/06 06:29:17;;;;;;;6.75;2.30;;;;;;;13.93;81.58;101197.14;1668831;84;21204;-78
2022/10/06 06:32:24;;;;;;;6.83;2.80;;;;;;;14.07;80.29;101195.03;1669164;84;21274;-78
2022/10/06 06:35:33;;;;;;;6.30;2.80;;;;;;;14.21;78.89;101187.89;1660193;84;21267;-79
2022/10/06 06:38:39;;;;;;;6.83;2.62;;;;;;;14.25;77.37;101190.63;1667728;84;22464;-76
2022/10/06 06:41:47;;;;;;;7.65;2.52;;;;;;;14.33;76.20;101200.23;1658339;84;21835;-78
2022/10/06 06:44:55;;;;;;;3.27;2.08;;;;;;;14.40;76.84;101194.36;1657235;85;21246;-78
2022/10/06 06:48:04;;;;;;;8.38;1.98;;;;;;;14.51;76.35;101195.87;1669296;84;21241;-78
2022/10/06 06:51:14;;;;;;;11.18;2.30;;;;;;;14.63;75.44;101196.31;1662763;84;21228;-77
2022/10/06 06:54:20;;;;;;;5.70;2.20;;;;;;;14.74;74.68;101195.92;1665282;84;21338;-78
2022/10/06 06:57:21;;;;;;;8.20;2.10;;;;;;;14.81;72.14;101205.15;1666010;85;21201;-78
2022/10/06 07:00:18;;;;;;;4.20;1.85;;;;;;;14.78;69.98;101198.12;1669453;84;21270;-78
2022/10/06 07:03:28;;;;;;;4.70;2.22;;;;;;;14.85;69.61;101198.23;1666171;84;21843;-77
2022/10/06 07:06:30;;;;;;;7.15;2.12;;;;;;;14.92;68.88;101197.01;1668077;84;21762;-79
2022/10/06 07:09:34;;;;;;;4.75;1.90;;;;;;;15.00;67.83;101196.92;1670262;85;21926;-78
2022/10/06 07:12:44;;;;;;;2.80;1.72;;;;;;;15.12;66.39;101194.61;1664859;84;21220;-78
2022/10/06 07:26:08;;;;;;;5.92;1.85;;;;;;;15.37;65.10;101196.63;1678249;84;21168;-78
2022/10/06 07:29:14;;;;;;;5.95;1.60;;;;;;;15.49;63.35;101200.66;1652235;85;21777;-78
2022/10/06 07:32:20;;;;;;;3.92;1.47;;;;;;;15.56;62.57;101191.95;1673446;84;21200;-79
2022/10/06 07:35:26;;;;;;;8.75;1.37;;;;;;;15.57;61.67;101199.17;1676034;84;21220;-79
2022/10/06 07:38:26;;;;;;;4.67;1.90;;;;;;;15.68;61.05;101199.30;1673580;84;21219;-78
2022/10/06 07:41:33;;;;;;;8.95;2.30;;;;;;;15.72;60.80;101196.50;1668451;84;21214;-79
2022/10/06 07:44:39;;;;;;;6.62;2.02;;;;;;;15.83;61.37;101202.39;1667459;84;21251;-79
2022/10/06 07:47:46;;;;;;;3.35;1.47;;;;;;;15.95;62.73;101200.04;1681240;84;21275;-79
2022/10/06 07:50:57;;;;;;;5.93;1.93;;;;;;;16.16;62.54;101203.92;1679061;84;22236;-79
2022/10/06 07:54:03;;;;;;;4.90;1.60;;;;;;;16.29;61.65;101205.48;1672393;84;21901;-79
2022/10/06 07:57:18;;;;;;;4.83;2.37;;;;;;;16.42;59.91;101200.64;1674010;84;21262;-78
2022/10/06 08:00:25;;;;;;;5.45;1.95;;;;;;;16.48;58.83;101199.36;1649065;85;21286;-78
2022/10/06 08:03:34;;;;;;;2.72;1.37;;;;;;;16.50;57.77;101195.87;1672401;84;21212;-78
2022/10/06 08:06:41;;;;;;;3.42;2.00;;;;;;;16.51;57.13;101190.67;1673959;84;21228;-78
2022/10/06 08:09:47;;;;;;;5.97;1.85;;;;;;;16.48;58.03;101186.94;1675864;84;21200;-77
2022/10/06 08:12:55;;;;;;;5.72;2.15;;;;;;;16.51;58.94;101182.38;1675258;84;21744;-78
2022/10/06 08:16:00;;;;;;;5.60;2.25;;;;;;;16.56;58.67;101176.28;1672071;84;21291;-79
2022/10/06 08:19:06;;;;;;;5.30;2.20;;;;;;;16.61;57.73;101173.29;1678419;84;21178;-79
2022/10/06 08:22:11;;;;;;;5.47;1.95;;;;;;;16.68;57.60;101170.59;1677400;84;21232;-79
2022/10/06 08:25:17;;;;;;;3.65;1.60;;;;;;;16.72;58.18;101172.47;1682330;83;21216;-78
2022/10/06 08:28:23;;;;;;;3.98;1.92;;;;;;;16.83;57.85;101165.04;1683379;83;21537;-79
2022/10/06 08:31:29;;;;;;;4.08;2.10;;;;;;;16.94;57.48;101163.65;1677448;83;21204;-80
2022/10/06 08:34:37;;;;;;;4.42;2.50;;;;;;;17.05;57.54;101162.61;1679394;83;21205;-78
2022/10/06 08:37:42;;;;;;;9.08;2.55;;;;;;;17.15;56.25;101165.56;1674967;83;21268;-78
2022/10/06 08:40:51;;;;;;;3.87;2.08;;;;;;;17.17;55.82;101167.06;1673656;83;21871;-79
2022/10/06 08:44:20;;;;;;;11.50;2.30;;;;;;;17.24;56.68;101167.14;1682628;83;21818;-79
2022/10/06 08:47:27;;;;;;;8.35;2.50;;;;;;;17.35;57.56;101174.34;1649328;85;21899;-78
2022/10/06 08:50:37;;;;;;;4.62;2.55;;;;;;;17.37;58.03;101172.26;1659599;85;21235;-78
2022/10/06 08:53:51;;;;;;;4.33;2.33;;;;;;;17.44;57.99;101175.06;1651696;86;21221;-79
2022/10/06 08:57:03;;;;;;;3.70;1.87;;;;;;;17.45;57.31;101167.09;1651219;86;21757;-78
2022/10/06 09:00:12;;;;;;;4.10;2.30;;;;;;;17.44;55.05;101173.69;1646349;86;21217;-78
2022/10/06 09:03:27;;;;;;;4.08;2.25;;;;;;;17.36;55.94;101169.67;1658361;85;21184;-78
2022/10/06 09:07:10;;;;;;;4.87;1.98;;;;;;;17.37;56.00;101157.05;1669158;85;21150;-79
2022/10/06 09:10:49;;;;;;;4.40;2.00;;;;;;;17.41;56.90;101154.75;1602416;86;21273;-79
2022/10/06 09:14:11;;;;;;;6.10;2.10;;;;;;;17.48;55.37;101157.02;1629371;85;21378;-79
2022/10/06 09:17:25;;;;;;;6.03;2.17;;;;;;;17.56;55.49;101158.26;1662465;85;21238;-78
2022/10/06 09:20:56;;;;;;;4.55;1.70;;;;;;;17.61;55.80;101158.50;1653459;85;21266;-78
2022/10/06 09:24:08;;;;;;;5.20;2.25;;;;;;;17.69;55.99;101157.50;1640508;85;21265;-80
2022/10/06 09:27:32;;;;;;;6.08;3.27;;;;;;;17.86;56.34;101149.22;1655724;85;21400;-78
2022/10/06 09:30:42;;;;;;;6.72;1.75;;;;;;;17.97;56.01;101150.55;1643031;85;21413;-79
2022/10/06 09:33:50;;;;;;;4.40;2.17;;;;;;;18.02;55.31;101155.47;1646935;85;21213;-79
2022/10/06 09:37:14;;;;;;;9.65;2.10;;;;;;;18.02;55.83;101153.59;1647086;85;21198;-79
2022/10/06 09:40:24;;;;;;;8.43;2.65;;;;;;;18.02;54.67;101159.13;1646062;85;21206;-79
2022/10/06 09:43:36;;;;;;;5.20;2.37;;;;;;;17.97;53.49;101156.08;1645625;85;21232;-79
2022/10/06 09:46:43;;;;;;;3.95;2.30;;;;;;;17.97;53.87;101150.55;1668231;84;21252;-79
2022/10/06 09:49:50;;;;;;;4.22;2.47;;;;;;;17.86;54.44;101148.37;1673055;84;21251;-78
2022/10/06 09:53:09;;;;;;;12.00;2.62;;;;;;;17.78;55.66;101146.61;1651020;85;21188;-79
2022/10/06 09:56:22;;;;;;;7.62;2.20;;;;;;;17.82;56.52;101135.99;1662343;85;21554;-78
2022/10/06 09:59:35;;;;;;;4.12;1.82;;;;;;;17.81;57.41;101135.67;1663432;85;21242;-78
2022/10/06 10:02:44;;;;;;;3.37;1.57;;;;;;;17.83;56.52;101131.66;1675789;84;21200;-80
2022/10/06 10:06:03;;;;;;;3.30;1.60;;;;;;;17.83;54.34;101128.89;1649958;85;21331;-80
2022/10/06 10:09:32;;;;;;;5.78;1.70;;;;;;;17.86;54.54;101126.23;1634543;86;21196;-79
2022/10/06 10:12:39;;;;;;;9.18;1.98;;;;;;;17.94;52.56;101132.98;1644361;86;21767;-79
2022/10/06 10:15:53;;;;;;;6.83;2.30;;;;;;;18.02;53.67;101130.56;1683957;83;21208;-79
2022/10/06 10:18:58;;;;;;;6.83;1.87;;;;;;;18.16;54.06;101131.48;1678409;84;21818;-78
2022/10/06 10:22:05;;;;;;;5.40;2.35;;;;;;;18.29;55.27;101126.00;1653700;85;21198;-81
2022/10/06 10:26:00;;;;;;;3.35;1.55;;;;;;;18.37;52.96;101123.05;1678949;84;21181;-79
2022/10/06 10:29:29;;;;;;;5.85;2.10;;;;;;;18.38;52.81;101118.68;1674929;84;21205;-79
2022/10/06 10:32:59;;;;;;;6.35;1.92;;;;;;;18.41;52.52;101117.96;1671756;84;21205;-79
2022/10/06 10:36:05;;;;;;;3.55;1.55;;;;;;;18.47;53.52;101107.42;1680393;84;21216;-79
2022/10/06 10:39:13;;;;;;;6.25;1.50;;;;;;;18.46;52.45;101107.95;1651433;85;21201;-78
2022/10/06 10:42:44;;;;;;;6.70;1.90;;;;;;;18.38;51.39;101108.98;1638557;85;21192;-78
2022/10/06 10:45:45;;;;;;;2.50;1.55;;;;;;;18.31;50.37;101110.05;1669198;85;21205;-79
2022/10/06 10:49:07;;;;;;;3.42;1.32;;;;;;;18.23;50.34;101101.38;1650078;86;21251;-78
2022/10/06 10:52:26;;;;;;;10.20;2.60;;;;;;;18.23;50.85;101111.61;1690825;83;21675;-79
2022/10/06 10:55:54;;;;;;;6.78;1.80;;;;;;;18.18;51.27;101108.61;1680847;85;21240;-80
2022/10/06 10:59:22;;;;;;;10.20;2.30;;;;;;;18.17;51.88;101109.14;1678392;85;21248;-80
2022/10/06 11:02:28;;;;;;;12.58;2.30;;;;;;;18.09;52.83;101108.78;1662527;84;22378;-78
2022/10/06 11:06:00;;;;;;;4.05;2.20;;;;;;;18.06;52.63;101102.26;1672746;85;21225;-78
2022/10/06 11:09:15;;;;;;;6.22;1.72;;;;;;;18.07;52.91;101097.08;1673096;85;21788;-78
2022/10/06 11:12:35;;;;;;;5.47;2.45;;;;;;;18.04;52.60;101094.70;1651595;85;22572;-78
2022/10/06 11:16:08;;;;;;;7.03;2.02;;;;;;;17.94;53.41;101092.86;1677291;84;21196;-79
2022/10/06 11:19:34;;;;;;;3.83;2.15;;;;;;;17.86;53.31;101092.48;1656808;86;21884;-78
2022/10/06 11:22:48;;;;;;;5.47;2.25;;;;;;;17.82;53.03;101088.95;1637811;85;21670;-78
2022/10/06 11:26:34;;;;;;;4.65;2.05;;;;;;;17.76;54.21;101093.39;1679821;85;21183;-78
2022/10/06 11:30:06;;;;;;;3.77;2.22;;;;;;;17.74;53.57;101091.37;1696252;84;21746;-78
2022/10/06 11:33:24;;;;;;;4.37;2.25;;;;;;;17.71;53.79;101089.51;1672252;85;21248;-78
2022/10/06 11:36:46;;;;;;;7.28;2.10;;;;;;;17.74;52.54;101090.53;1673406;85;21352;-78
2022/10/06 11:40:30;;;;;;;3.98;2.00;;;;;;;17.72;52.35;101090.68;1676863;85;21213;-78
2022/10/06 11:43:49;;;;;;;4.65;1.95;;;;;;;17.68;52.23;101088.52;1675362;85;21193;-79
2022/10/06 11:47:08;;;;;;;7.80;2.13;;;;;;;17.65;52.01;101093.10;1694507;83;21227;-78
2022/10/06 11:50:46;;;;;;;2.62;1.47;;;;;;;17.59;51.88;101091.45;1640883;85;21807;-78
2022/10/06 11:53:54;;;;;;;7.55;1.60;;;;;;;17.59;51.52;101086.45;1637299;85;21192;-78
2022/10/06 11:56:59;;;;;;;4.85;1.40;;;;;;;17.58;51.90;101088.36;1648332;85;21200;-78
2022/10/06 12:00:19;;;;;;;4.92;1.98;;;;;;;17.58;51.96;101092.51;1641177;85;21334;-78
2022/10/06 12:03:41;;;;;;;5.58;1.70;;;;;;;17.59;52.19;101097.51;1643732;85;21229;-78
2022/10/06 12:06:54;;;;;;;5.87;1.60;;;;;;;17.60;52.28;101090.95;1650581;85;21239;-78
2022/10/06 12:09:59;;;;;;;3.42;1.40;;;;;;;17.55;51.29;101092.94;1646729;85;21781;-78
2022/10/06 12:13:38;;;;;;;14.18;1.85;;;;;;;17.53;51.22;101087.27;1641205;85;21225;-78
2022/10/06 12:16:46;;;;;;;2.83;1.52;;;;;;;17.51;52.48;101088.86;1646434;85;21207;-78
2022/10/06 12:20:51;;;;;;;5.35;1.80;;;;;;;17.50;52.03;101088.55;1642636;85;21264;-78
2022/10/06 12:24:10;;;;;;;6.85;1.90;;;;;;;17.48;51.64;101086.49;1617354;87;21232;-77
2022/10/06 12:27:31;;;;;;;9.53;2.20;;;;;;;17.44;51.72;101086.56;1646574;85;21212;-78
2022/10/06 12:31:14;;;;;;;7.17;2.37;;;;;;;17.37;52.43;101087.06;1642366;86;21255;-77
2022/10/06 12:34:47;;;;;;;16.20;2.37;;;;;;;17.32;53.66;101085.44;1642324;85;21232;-78
2022/10/06 12:37:55;;;;;;;5.45;1.95;;;;;;;17.29;53.83;101085.30;1657589;85;21851;-78
2022/10/06 12:41:01;;;;;;;5.72;1.98;;;;;;;17.29;53.62;101088.06;1639855;85;21893;-78
2022/10/06 12:44:10;;;;;;;9.48;2.00;;;;;;;17.27;53.07;101076.90;1638220;85;21267;-78
2022/10/06 12:47:42;;;;;;;8.83;2.20;;;;;;;17.27;52.81;101078.28;1644353;87;21290;-79
2022/10/06 12:50:49;;;;;;;6.55;1.90;;;;;;;17.23;52.75;101068.68;1668734;84;22263;-78
2022/10/06 12:54:10;;;;;;;8.60;1.87;;;;;;;17.19;53.36;101075.66;1651182;85;22242;-77
2022/10/06 12:57:29;;;;;;;4.75;1.80;;;;;;;17.17;52.84;101075.84;1679108;84;21556;-78
2022/10/06 13:00:46;;;;;;;4.58;1.55;;;;;;;17.13;53.32;101070.95;1680390;84;21275;-78
2022/10/06 13:03:56;;;;;;;4.67;2.02;;;;;;;17.13;53.74;101070.41;1678383;84;21272;-79
2022/10/06 13:07:01;;;;;;;7.10;2.22;;;;;;;17.07;53.23;101067.91;1680613;84;21212;-79
2022/10/06 13:10:25;;;;;;;3.30;1.70;;;;;;;17.07;53.49;101072.58;1651981;86;21258;-79
2022/10/06 13:13:32;;;;;;;8.35;2.55;;;;;;;17.07;53.13;101061.52;1672934;85;21286;-79
2022/10/06 13:16:44;;;;;;;9.38;2.58;;;;;;;17.04;52.75;101056.41;1685541;83;22162;-81
2022/10/06 13:19:36;;;;;;;6.33;2.10;;;;;;;17.01;54.08;101054.89;1651291;86;21610;-79
2022/10/06 13:22:43;;;;;;;7.10;2.45;;;;;;;17.01;54.42;101063.19;1653215;86;21322;-79
2022/10/06 13:25:58;;;;;;;9.58;2.33;;;;;;;17.04;53.90;101062.80;1681293;85;21276;-79
2022/10/06 13:29:06;;;;;;;12.33;2.58;;;;;;;17.02;53.95;101054.36;1680608;85;21596;-78
2022/10/06 13:32:25;;;;;;;9.33;2.50;;;;;;;16.95;53.71;101056.23;1652184;86;21242;-78
2022/10/06 13:35:31;;;;;;;8.08;2.60;;;;;;;16.88;54.20;101057.54;1651936;86;21213;-78
2022/10/06 13:38:37;;;;;;;18.77;3.30;;;;;;;16.85;54.82;101052.44;1653341;86;21232;-78
2022/10/06 13:41:44;;;;;;;12.05;2.65;;;;;;;16.82;55.71;101052.29;1646808;86;21234;-78
2022/10/06 13:45:04;;;;;;;11.55;3.55;;;;;;;16.77;55.34;101053.42;1693397;84;21248;-78
2022/10/06 13:48:20;;;;;;;10.60;3.45;;;;;;;16.72;55.27;101045.41;1694068;84;21224;-78
2022/10/06 13:51:29;;;;;;;13.75;3.45;;;;;;;16.63;55.48;101044.66;1694895;84;21260;-78
2022/10/06 13:55:00;;;;;;;13.10;3.50;;;;;;;16.53;56.06;101043.61;1695491;84;21917;-78
2022/10/06 13:58:11;;;;;;;10.95;3.75;;;;;;;16.48;56.81;101047.48;1696120;84;21763;-78
2022/10/06 14:01:18;;;;;;;11.75;3.15;;;;;;;16.35;56.75;101042.67;1695369;84;21201;-78
2022/10/06 14:04:25;;;;;;;16.73;3.25;;;;;;;16.34;57.32;101047.02;1695738;84;21201;-78
2022/10/06 14:07:26;;;;;;;15.23;3.92;;;;;;;16.30;57.32;101039.66;1695371;84;21194;-78
2022/10/06 14:10:25;;;;;;;9.70;3.60;;;;;;;16.24;58.08;101040.97;1696635;84;21190;-78
2022/10/06 14:14:00;;;;;;;13.15;3.77;;;;;;;16.19;58.32;101040.70;1695971;84;21205;-78
2022/10/06 14:16:58;;;;;;;20.82;3.80;;;;;;;16.15;58.07;101036.63;1696582;84;21197;-78
2022/10/06 14:20:04;;;;;;;16.15;5.47;;;;;;;16.10;59.08;101038.06;1695987;84;21284;-77
2022/10/06 14:23:49;;;;;;;16.77;6.25;;;;;;;16.05;59.91;101035.03;1695209;84;21193;-78
2022/10/06 14:26:56;;;;;;;18.27;3.58;;;;;;;15.97;60.38;101036.52;1697495;84;21189;-78
2022/10/06 14:30:02;;;;;;;7.97;3.55;;;;;;;15.90;60.40;101035.57;1696897;84;21177;-78
2022/10/06 14:33:09;;;;;;;9.78;2.72;;;;;;;15.81;60.68;101038.14;1695849;84;21244;-78
2022/10/06 14:36:26;;;;;;;9.25;2.40;;;;;;;15.74;61.26;101039.94;1683565;84;21228;-78
2022/10/06 14:39:30;;;;;;;16.02;2.80;;;;;;;15.66;61.29;101039.52;1657350;86;21252;-78
2022/10/06 14:42:39;;;;;;;9.03;2.52;;;;;;;15.56;61.23;101036.17;1687581;85;21746;-78
2022/10/06 14:45:51;;;;;;;19.60;3.98;;;;;;;15.48;61.00;101035.77;1674461;85;21252;-79
2022/10/06 14:49:03;;;;;;;12.75;2.72;;;;;;;15.43;61.18;101042.38;1688703;85;21232;-79
2022/10/06 14:52:09;;;;;;;10.63;2.90;;;;;;;15.38;60.97;101045.34;1688225;85;21801;-79